createdAt,value
2023-02-28T00:01:34.147Z,6.80
2023-02-28T00:04:01.221Z,6.80
2023-02-28T00:06:28.537Z,6.80
2023-02-28T00:08:55.943Z,6.80
2023-02-28T00:11:23.019Z,6.80
2023-02-28T00:13:50.297Z,6.80
2023-02-28T00:16:21.345Z,6.80
2023-02-28T00:18:48.920Z,6.80
2023-02-28T00:21:17.246Z,6.70
2023-02-28T00:23:44.875Z,6.70
2023-02-28T00:26:12.179Z,6.70
2023-02-28T00:28:41.907Z,6.80
2023-02-28T00:31:08.980Z,6.70
2023-02-28T00:33:36.178Z,6.70
2023-02-28T00:36:05.759Z,6.70
2023-02-28T00:38:33.164Z,6.70
2023-02-28T00:41:05.574Z,6.70
2023-02-28T00:43:34.911Z,6.70
2023-02-28T00:46:02.881Z,6.70
2023-02-28T00:48:31.172Z,6.70
2023-02-28T00:50:58.252Z,6.70
2023-02-28T00:53:25.941Z,6.70
2023-02-28T00:55:53.102Z,6.70
2023-02-28T00:58:20.229Z,6.70
2023-02-28T01:00:50.381Z,6.70
2023-02-28T01:03:19.163Z,6.70
2023-02-28T01:05:46.943Z,6.70
2023-02-28T01:08:15.210Z,6.70
2023-02-28T01:10:43.196Z,6.70
2023-02-28T01:13:10.400Z,6.60
2023-02-28T01:15:39.098Z,6.60
2023-02-28T01:18:06.284Z,6.60
2023-02-28T01:20:33.271Z,6.60
2023-02-28T01:23:00.238Z,6.60
2023-02-28T01:25:28.011Z,6.60
2023-02-28T01:27:55.780Z,6.60
2023-02-28T01:30:22.784Z,6.60
2023-02-28T01:32:51.184Z,6.60
2023-02-28T01:35:18.973Z,6.60
2023-02-28T01:37:46.367Z,6.60
2023-02-28T01:40:14.219Z,6.60
2023-02-28T01:42:41.323Z,6.60
2023-02-28T01:45:43.926Z,6.60
2023-02-28T01:48:11.307Z,6.60
2023-02-28T01:50:43.953Z,6.60
2023-02-28T01:53:17.638Z,6.50
2023-02-28T01:55:48.200Z,6.50
2023-02-28T01:58:16.580Z,6.50
2023-02-28T02:00:43.931Z,6.50
2023-02-28T02:03:17.162Z,6.50
2023-02-28T02:05:48.599Z,6.50
2023-02-28T02:08:23.024Z,6.50
2023-02-28T02:10:58.103Z,6.50
2023-02-28T02:13:59.417Z,6.50
2023-02-28T02:16:44.973Z,6.50
2023-02-28T02:19:36.115Z,6.50
2023-02-28T02:22:24.667Z,6.50
2023-02-28T02:25:10.299Z,6.50
2023-02-28T02:27:49.296Z,6.50
2023-02-28T02:30:31.197Z,6.50
2023-02-28T02:33:10.690Z,6.50
2023-02-28T02:36:19.530Z,6.50
2023-02-28T02:38:46.652Z,6.50
2023-02-28T02:41:29.444Z,6.50
2023-02-28T02:44:04.682Z,6.50
2023-02-28T02:46:37.949Z,6.50
2023-02-28T02:49:10.627Z,6.40
2023-02-28T02:51:39.456Z,6.40
2023-02-28T02:54:19.352Z,6.40
2023-02-28T02:56:49.209Z,6.40
2023-02-28T02:59:22.525Z,6.40
2023-02-28T03:01:54.405Z,6.40
2023-02-28T03:04:24.289Z,6.40
2023-02-28T03:06:55.802Z,6.40
2023-02-28T03:09:27.318Z,6.40
2023-02-28T03:11:57.233Z,6.40
2023-02-28T03:14:49.000Z,6.40
2023-02-28T03:17:47.262Z,6.40
2023-02-28T03:20:29.426Z,6.40
2023-02-28T03:23:01.473Z,6.40
2023-02-28T03:26:05.882Z,6.40
2023-02-28T03:28:34.022Z,6.40
2023-02-28T03:31:10.268Z,6.40
2023-02-28T03:33:45.890Z,6.30
2023-02-28T03:36:18.552Z,6.30
2023-02-28T03:39:06.500Z,6.30
2023-02-28T03:41:45.811Z,6.30
2023-02-28T03:44:24.412Z,6.30
2023-02-28T03:46:54.647Z,6.30
2023-02-28T03:49:50.664Z,6.30
2023-02-28T03:52:20.851Z,6.30
2023-02-28T03:54:53.552Z,6.30
2023-02-28T03:57:35.605Z,6.30
2023-02-28T04:00:17.690Z,6.30
2023-02-28T04:02:45.014Z,6.30
2023-02-28T04:05:12.178Z,6.30
2023-02-28T04:07:39.284Z,6.30
2023-02-28T04:10:07.551Z,6.30
2023-02-28T04:12:34.613Z,6.30
2023-02-28T04:15:01.567Z,6.30
2023-02-28T04:17:28.612Z,6.30
2023-02-28T04:19:58.269Z,6.30
2023-02-28T04:22:28.005Z,6.30
2023-02-28T04:24:55.484Z,6.30
2023-02-28T04:27:23.086Z,6.30
2023-02-28T04:29:50.048Z,6.30
2023-02-28T04:32:17.203Z,6.30
2023-02-28T04:34:44.319Z,6.30
2023-02-28T04:37:13.714Z,6.40
2023-02-28T04:39:42.090Z,6.40
2023-02-28T04:42:09.779Z,6.40
2023-02-28T04:44:36.848Z,6.40
2023-02-28T04:47:03.930Z,6.40
2023-02-28T04:49:31.042Z,6.30
2023-02-28T04:51:58.162Z,6.40
2023-02-28T04:54:25.550Z,6.40
2023-02-28T04:56:52.636Z,6.40
2023-02-28T04:59:19.727Z,6.40
2023-02-28T05:01:49.073Z,6.40
2023-02-28T05:04:16.913Z,6.40
2023-02-28T05:06:43.961Z,6.40
2023-02-28T05:09:14.076Z,6.40
2023-02-28T05:11:41.911Z,6.40
2023-02-28T05:14:15.065Z,6.40
2023-02-28T05:16:42.340Z,6.40
2023-02-28T05:19:09.526Z,6.30
2023-02-28T05:21:38.044Z,6.30
2023-02-28T05:24:11.437Z,6.30
2023-02-28T05:26:41.381Z,6.40
2023-02-28T05:29:08.958Z,6.40
2023-02-28T05:31:36.524Z,6.40
2023-02-28T05:34:05.311Z,6.40
2023-02-28T05:36:33.481Z,6.40
2023-02-28T05:39:00.567Z,6.40
2023-02-28T05:41:28.125Z,6.40
2023-02-28T05:43:55.439Z,6.30
2023-02-28T05:46:22.462Z,6.30
2023-02-28T05:48:50.178Z,6.30
2023-02-28T05:51:17.963Z,6.40
2023-02-28T05:53:45.227Z,6.30
2023-02-28T05:56:12.393Z,6.30
2023-02-28T05:58:39.417Z,6.30
2023-02-28T06:01:36.619Z,6.30
2023-02-28T06:04:05.697Z,6.30
2023-02-28T06:06:36.831Z,6.30
2023-02-28T06:09:06.133Z,6.30
2023-02-28T06:11:34.240Z,6.30
2023-02-28T06:14:02.248Z,6.30
2023-02-28T06:16:31.110Z,6.30
2023-02-28T06:19:03.573Z,6.30
2023-02-28T06:21:31.379Z,6.30
2023-02-28T06:23:59.821Z,6.30
2023-02-28T06:26:27.535Z,6.30
2023-02-28T06:28:55.818Z,6.30
2023-02-28T06:31:23.657Z,6.30
2023-02-28T06:33:51.125Z,6.30
2023-02-28T06:36:18.744Z,6.30
2023-02-28T06:38:47.814Z,6.30
2023-02-28T06:41:14.912Z,6.30
2023-02-28T06:43:43.621Z,6.30
2023-02-28T06:46:14.611Z,6.30
2023-02-28T06:48:43.729Z,6.30
2023-02-28T06:51:15.172Z,6.30
2023-02-28T06:53:42.525Z,6.30
2023-02-28T06:56:11.904Z,6.30
2023-02-28T06:58:40.291Z,6.30
2023-02-28T07:01:08.522Z,6.30
2023-02-28T07:03:37.505Z,6.30
2023-02-28T07:06:06.547Z,6.30
2023-02-28T07:08:34.728Z,6.30
2023-02-28T07:11:01.927Z,6.30
2023-02-28T07:13:37.680Z,6.30
2023-02-28T07:16:07.551Z,6.30
2023-02-28T07:18:34.907Z,6.30
2023-02-28T07:21:07.256Z,6.30
2023-02-28T07:23:34.624Z,6.30
2023-02-28T07:26:01.727Z,6.30
2023-02-28T07:28:28.861Z,6.30
2023-02-28T07:30:55.965Z,6.30
2023-02-28T07:33:23.032Z,6.30
2023-02-28T07:35:50.122Z,6.30
2023-02-28T07:38:17.694Z,6.30
2023-02-28T07:40:44.745Z,6.30
2023-02-28T07:43:11.782Z,6.30
2023-02-28T07:45:38.797Z,6.30
2023-02-28T07:48:06.007Z,6.30
2023-02-28T07:50:33.066Z,6.30
2023-02-28T07:53:00.546Z,6.30
2023-02-28T07:55:28.098Z,6.30
2023-02-28T07:57:55.326Z,6.30
2023-02-28T08:00:22.934Z,6.30
2023-02-28T08:02:50.477Z,6.30
2023-02-28T08:05:21.428Z,6.30
2023-02-28T08:07:50.557Z,6.30
2023-02-28T08:10:17.675Z,6.30
2023-02-28T08:12:44.860Z,6.40
2023-02-28T08:15:12.212Z,6.40
2023-02-28T08:17:39.426Z,6.40
2023-02-28T08:20:07.518Z,6.40
2023-02-28T08:22:34.677Z,6.40
2023-02-28T08:25:01.738Z,6.40
2023-02-28T08:27:28.720Z,6.50
2023-02-28T08:29:55.707Z,6.50
2023-02-28T08:32:29.929Z,6.50
2023-02-28T08:34:57.613Z,6.50
2023-02-28T08:37:24.768Z,6.50
2023-02-28T08:39:54.073Z,6.50
2023-02-28T08:42:24.848Z,6.50
2023-02-28T08:44:51.952Z,6.50
2023-02-28T08:47:19.174Z,6.50
2023-02-28T08:49:46.153Z,6.50
2023-02-28T08:52:13.982Z,6.50
2023-02-28T08:54:41.096Z,6.50
2023-02-28T08:57:08.136Z,6.50
2023-02-28T08:59:35.194Z,6.60
2023-02-28T09:02:02.339Z,6.60
2023-02-28T09:04:31.855Z,6.60
2023-02-28T09:06:58.972Z,6.60
2023-02-28T09:09:26.052Z,6.60
2023-02-28T09:11:53.021Z,6.60
2023-02-28T09:14:20.874Z,6.60
2023-02-28T09:16:47.891Z,6.60
2023-02-28T09:19:14.986Z,6.60
2023-02-28T09:21:42.006Z,6.60
2023-02-28T09:24:09.270Z,6.70
2023-02-28T09:26:42.746Z,6.70
2023-02-28T09:29:15.567Z,6.70
2023-02-28T09:31:44.787Z,6.70
2023-02-28T09:34:11.904Z,6.70
2023-02-28T09:36:45.097Z,6.70
2023-02-28T09:39:15.633Z,6.70
2023-02-28T09:41:52.075Z,6.80
2023-02-28T09:44:45.164Z,6.80
2023-02-28T09:47:30.926Z,6.80
2023-02-28T09:50:04.374Z,6.80
2023-02-28T09:52:33.532Z,6.90
2023-02-28T09:55:35.304Z,6.90
2023-02-28T09:58:37.245Z,6.90
2023-02-28T10:01:36.704Z,6.90
2023-02-28T10:04:36.109Z,6.90
2023-02-28T10:07:18.911Z,7.00
2023-02-28T10:09:50.109Z,7.00
2023-02-28T10:12:18.571Z,7.00
2023-02-28T10:14:48.534Z,7.10
2023-02-28T10:17:21.495Z,7.10
2023-02-28T10:20:09.065Z,7.10
2023-02-28T10:22:58.819Z,7.10
2023-02-28T10:25:29.878Z,7.20
2023-02-28T10:28:06.658Z,7.20
2023-02-28T10:30:34.003Z,7.20
2023-02-28T10:33:01.192Z,7.10
2023-02-28T10:35:28.854Z,7.10
2023-02-28T10:37:59.278Z,7.10
2023-02-28T10:40:29.239Z,7.20
2023-02-28T10:42:59.021Z,7.20
2023-02-28T10:45:27.347Z,7.30
2023-02-28T10:48:00.833Z,7.40
2023-02-28T10:50:44.499Z,7.50
2023-02-28T10:53:11.466Z,7.60
2023-02-28T10:55:38.866Z,7.60
2023-02-28T10:58:26.763Z,7.70
2023-02-28T11:00:54.905Z,7.70
2023-02-28T11:03:36.328Z,7.80
2023-02-28T11:06:09.739Z,7.80
2023-02-28T11:08:46.753Z,7.80
2023-02-28T11:11:14.247Z,7.80
2023-02-28T11:13:42.833Z,7.90
2023-02-28T11:16:13.684Z,7.90
2023-02-28T11:18:54.756Z,7.90
2023-02-28T11:21:31.010Z,7.90
2023-02-28T11:24:35.992Z,7.90
2023-02-28T11:27:03.911Z,7.80
2023-02-28T11:29:33.277Z,7.80
2023-02-28T11:32:03.443Z,7.70
2023-02-28T11:34:30.958Z,7.80
2023-02-28T11:37:00.640Z,7.80
2023-02-28T11:39:28.352Z,8.00
2023-02-28T11:42:04.215Z,8.10
2023-02-28T11:45:06.207Z,8.20
2023-02-28T11:47:39.071Z,8.30
2023-02-28T11:50:27.008Z,8.40
2023-02-28T11:52:58.836Z,8.50
2023-02-28T11:55:33.322Z,8.50
2023-02-28T11:58:49.620Z,8.60
2023-02-28T12:01:28.714Z,8.70
2023-02-28T12:04:17.918Z,8.70
2023-02-28T12:07:09.429Z,8.60
2023-02-28T12:09:58.277Z,8.60
2023-02-28T12:12:39.195Z,8.60
2023-02-28T12:15:16.763Z,8.50
2023-02-28T12:18:00.826Z,8.50
2023-02-28T12:20:43.188Z,8.60
2023-02-28T12:23:44.455Z,8.60
2023-02-28T12:26:11.449Z,8.70
2023-02-28T12:28:45.501Z,8.70
2023-02-28T12:31:23.104Z,8.70
2023-02-28T12:33:56.516Z,8.70
2023-02-28T12:36:25.024Z,8.70
2023-02-28T12:39:13.813Z,8.70
2023-02-28T12:41:47.360Z,8.70
2023-02-28T12:44:41.181Z,8.80
2023-02-28T12:47:17.113Z,8.80
2023-02-28T12:49:50.946Z,8.80
2023-02-28T12:52:24.576Z,8.90
2023-02-28T12:55:01.966Z,9.00
2023-02-28T12:58:09.266Z,9.00
2023-02-28T13:00:40.037Z,9.10
2023-02-28T13:03:12.990Z,9.10
2023-02-28T13:06:01.557Z,9.00
2023-02-28T13:08:35.603Z,9.00
2023-02-28T13:11:05.571Z,8.90
2023-02-28T13:13:34.757Z,8.90
2023-02-28T13:16:04.190Z,8.90
2023-02-28T13:18:43.052Z,8.80
2023-02-28T13:21:25.007Z,8.80
2023-02-28T13:23:59.327Z,8.70
2023-02-28T13:26:32.533Z,8.70
2023-02-28T13:29:02.588Z,8.70
2023-02-28T13:31:29.910Z,8.70
2023-02-28T13:34:03.407Z,8.70
2023-02-28T13:36:32.663Z,8.70
2023-02-28T13:39:02.900Z,8.70
2023-02-28T13:41:30.218Z,8.60
2023-02-28T13:44:09.077Z,8.60
2023-02-28T13:46:51.749Z,8.60
2023-02-28T13:49:27.755Z,8.60
2023-02-28T13:52:06.809Z,8.60
2023-02-28T13:54:52.732Z,8.60
2023-02-28T13:57:50.325Z,8.50
2023-02-28T14:00:42.496Z,8.60
2023-02-28T14:03:12.295Z,8.50
2023-02-28T14:05:39.944Z,8.50
2023-02-28T14:08:18.001Z,8.50
2023-02-28T14:10:51.143Z,8.40
2023-02-28T14:13:45.835Z,8.30
2023-02-28T14:16:21.342Z,8.30
2023-02-28T14:19:06.683Z,8.20
2023-02-28T14:21:39.528Z,8.20
2023-02-28T14:24:24.799Z,8.10
2023-02-28T14:27:16.959Z,8.10
2023-02-28T14:30:11.574Z,8.00
2023-02-28T14:32:52.636Z,8.00
2023-02-28T14:35:28.500Z,8.00
2023-02-28T14:37:56.194Z,8.00
2023-02-28T14:40:33.418Z,8.00
2023-02-28T14:43:05.605Z,8.00
2023-02-28T14:45:35.527Z,8.00
2023-02-28T14:48:05.155Z,8.00
2023-02-28T14:50:37.835Z,8.00
2023-02-28T14:53:07.730Z,8.00
2023-02-28T14:55:36.961Z,8.00
2023-02-28T14:58:07.721Z,8.00
2023-02-28T15:00:47.942Z,8.00
2023-02-28T15:03:22.868Z,7.90
2023-02-28T15:06:01.473Z,7.90
2023-02-28T15:08:30.199Z,7.90
2023-02-28T15:10:59.051Z,7.80
2023-02-28T15:13:46.263Z,7.80
2023-02-28T15:16:18.205Z,7.80
2023-02-28T15:18:53.645Z,7.80
2023-02-28T15:21:29.927Z,7.80
2023-02-28T15:24:28.949Z,7.80
2023-02-28T15:26:58.687Z,7.80
2023-02-28T15:29:29.208Z,7.80
2023-02-28T15:32:08.351Z,7.80
2023-02-28T15:34:45.875Z,7.80
2023-02-28T15:37:39.412Z,7.80
2023-02-28T15:40:13.499Z,7.80
2023-02-28T15:42:40.644Z,7.80
2023-02-28T15:45:48.061Z,7.80
2023-02-28T15:48:25.351Z,7.80
2023-02-28T15:50:58.416Z,7.80
2023-02-28T15:53:31.380Z,7.80
2023-02-28T15:56:05.789Z,7.70
2023-02-28T15:58:34.117Z,7.70
2023-02-28T16:01:07.430Z,7.70
2023-02-28T16:03:56.932Z,7.70
2023-02-28T16:06:45.456Z,7.60
2023-02-28T16:09:16.450Z,7.60
2023-02-28T16:11:50.208Z,7.60
2023-02-28T16:14:31.119Z,7.60
2023-02-28T16:17:05.384Z,7.60
2023-02-28T16:19:34.696Z,7.60
2023-02-28T16:22:02.306Z,7.60
2023-02-28T16:24:29.355Z,7.60
2023-02-28T16:26:58.115Z,7.50
2023-02-28T16:29:33.071Z,7.50
2023-02-28T16:32:01.472Z,7.50
2023-02-28T16:34:28.783Z,7.50
2023-02-28T16:36:55.767Z,7.50
2023-02-28T16:39:23.019Z,7.40
2023-02-28T16:41:51.904Z,7.40
2023-02-28T16:44:35.569Z,7.40
2023-02-28T16:47:03.840Z,7.40
2023-02-28T16:49:31.644Z,7.40
2023-02-28T16:51:58.722Z,7.40
2023-02-28T16:54:25.913Z,7.40
2023-02-28T16:56:53.025Z,7.40
2023-02-28T16:59:25.206Z,7.30
2023-02-28T17:01:53.045Z,7.30
2023-02-28T17:04:20.428Z,7.30
2023-02-28T17:06:47.565Z,7.30
2023-02-28T17:09:26.309Z,7.30
2023-02-28T17:11:57.884Z,7.30
2023-02-28T17:14:24.957Z,7.30
2023-02-28T17:16:52.081Z,7.30
2023-02-28T17:19:19.266Z,7.30
2023-02-28T17:21:46.783Z,7.30
2023-02-28T17:24:16.500Z,7.20
2023-02-28T17:26:46.555Z,7.20
2023-02-28T17:29:22.547Z,7.20
2023-02-28T17:31:49.705Z,7.20
2023-02-28T17:34:19.364Z,7.20
2023-02-28T17:36:48.495Z,7.10
2023-02-28T17:39:25.217Z,7.20
2023-02-28T17:41:56.328Z,7.10
2023-02-28T17:44:27.507Z,7.10
2023-02-28T17:46:56.005Z,7.10
2023-02-28T17:49:23.456Z,7.10
2023-02-28T17:51:51.560Z,7.10
2023-02-28T17:54:19.313Z,7.10
2023-02-28T17:56:46.467Z,7.10
2023-02-28T17:59:13.994Z,7.10
2023-02-28T18:01:40.996Z,7.10
2023-02-28T18:04:08.063Z,7.10
2023-02-28T18:06:47.503Z,7.00
2023-02-28T18:09:16.796Z,7.00
2023-02-28T18:11:46.183Z,7.00
2023-02-28T18:14:13.609Z,7.00
2023-02-28T18:16:40.747Z,7.00
2023-02-28T18:19:09.733Z,7.00
2023-02-28T18:21:36.799Z,7.00
2023-02-28T18:24:04.058Z,7.00
2023-02-28T18:26:31.626Z,7.00
2023-02-28T18:28:58.932Z,6.90
2023-02-28T18:31:26.024Z,6.90
2023-02-28T18:33:53.488Z,6.90
2023-02-28T18:36:22.109Z,6.90
2023-02-28T18:38:50.558Z,6.90
2023-02-28T18:41:18.255Z,6.90
2023-02-28T18:43:45.220Z,6.90
2023-02-28T18:46:14.616Z,6.90
2023-02-28T18:48:41.974Z,6.90
2023-02-28T18:51:13.846Z,6.80
2023-02-28T18:53:43.186Z,6.80
2023-02-28T18:56:13.371Z,6.80
2023-02-28T18:58:41.338Z,6.80
2023-02-28T19:01:28.615Z,6.80
2023-02-28T19:03:56.529Z,6.80
2023-02-28T19:06:23.917Z,6.70
2023-02-28T19:08:58.769Z,6.70
2023-02-28T19:11:26.122Z,6.70
2023-02-28T19:13:53.284Z,6.70
2023-02-28T19:16:21.941Z,6.70
2023-02-28T19:18:48.915Z,6.70
2023-02-28T19:21:17.477Z,6.70
2023-02-28T19:23:44.749Z,6.70
2023-02-28T19:26:17.114Z,6.70
2023-02-28T19:28:44.480Z,6.70
2023-02-28T19:31:14.111Z,6.70
2023-02-28T19:33:41.874Z,6.70
2023-02-28T19:36:12.637Z,6.70
2023-02-28T19:38:40.864Z,6.60
2023-02-28T19:41:10.127Z,6.70
2023-02-28T19:43:37.525Z,6.70
2023-02-28T19:46:05.451Z,6.60
2023-02-28T19:48:33.114Z,6.70
2023-02-28T19:51:05.968Z,6.60
2023-02-28T19:53:34.671Z,6.70
2023-02-28T19:56:01.734Z,6.70
2023-02-28T19:58:28.802Z,6.60
2023-02-28T20:00:55.870Z,6.60
2023-02-28T20:03:24.066Z,6.60
2023-02-28T20:06:00.895Z,6.60
2023-02-28T20:08:28.038Z,6.60
2023-02-28T20:10:55.098Z,6.60
2023-02-28T20:13:28.143Z,6.60
2023-02-28T20:15:55.475Z,6.60
2023-02-28T20:18:22.531Z,6.70
2023-02-28T20:20:49.488Z,6.60
2023-02-28T20:23:16.457Z,6.60
2023-02-28T20:25:43.452Z,6.60
2023-02-28T20:28:10.504Z,6.60
2023-02-28T20:30:39.297Z,6.60
2023-02-28T20:33:06.336Z,6.60
2023-02-28T20:35:33.803Z,6.60
2023-02-28T20:38:00.840Z,6.60
2023-02-28T20:40:27.886Z,6.60
2023-02-28T20:42:55.203Z,6.60
2023-02-28T20:45:22.256Z,6.50
2023-02-28T20:47:50.111Z,6.60
2023-02-28T20:50:17.510Z,6.50
2023-02-28T20:52:44.637Z,6.60
2023-02-28T20:55:13.020Z,6.60
2023-02-28T20:57:40.313Z,6.60
2023-02-28T21:00:09.594Z,6.60
2023-02-28T21:02:37.392Z,6.60
2023-02-28T21:05:04.658Z,6.60
2023-02-28T21:07:31.720Z,6.60
2023-02-28T21:09:58.715Z,6.60
2023-02-28T21:12:25.739Z,6.50
2023-02-28T21:14:52.730Z,6.50
2023-02-28T21:17:19.750Z,6.60
2023-02-28T21:19:46.813Z,6.50
2023-02-28T21:22:14.074Z,6.50
2023-02-28T21:24:41.203Z,6.50
2023-02-28T21:27:08.212Z,6.50
2023-02-28T21:29:36.326Z,6.50
2023-02-28T21:32:03.380Z,6.50
2023-02-28T21:34:30.535Z,6.50
2023-02-28T21:36:57.585Z,6.50
2023-02-28T21:39:30.239Z,6.50
2023-02-28T21:42:03.656Z,6.50
2023-02-28T21:44:34.424Z,6.50
2023-02-28T21:47:02.250Z,6.40
2023-02-28T21:49:30.081Z,6.40
2023-02-28T21:51:57.402Z,6.50
2023-02-28T21:54:24.915Z,6.50
2023-02-28T21:56:52.340Z,6.40
2023-02-28T21:59:20.422Z,6.40
2023-02-28T22:01:51.125Z,6.40
2023-02-28T22:04:21.635Z,6.40
2023-02-28T22:06:54.300Z,6.50
2023-02-28T22:09:22.186Z,6.40
2023-02-28T22:11:49.365Z,6.40
2023-02-28T22:14:16.626Z,6.40
2023-02-28T22:16:54.532Z,6.40
2023-02-28T22:19:22.910Z,6.40
2023-02-28T22:21:50.434Z,6.40
2023-02-28T22:24:20.666Z,6.40
2023-02-28T22:26:49.505Z,6.40
2023-02-28T22:29:16.400Z,6.40
2023-02-28T22:31:43.546Z,6.40
2023-02-28T22:34:13.068Z,6.40
2023-02-28T22:36:43.727Z,6.40
2023-02-28T22:39:10.856Z,6.40
2023-02-28T22:41:38.733Z,6.40
2023-02-28T22:44:07.426Z,6.40
2023-02-28T22:46:35.920Z,6.40
2023-02-28T22:49:04.742Z,6.40
2023-02-28T22:51:31.948Z,6.40
2023-02-28T22:53:59.086Z,6.40
2023-02-28T22:56:28.462Z,6.40
2023-02-28T22:58:57.485Z,6.40
2023-02-28T23:01:27.459Z,6.40
2023-02-28T23:03:55.169Z,6.40
2023-02-28T23:06:24.812Z,6.40
2023-02-28T23:08:53.533Z,6.40
2023-02-28T23:11:26.789Z,6.40
2023-02-28T23:14:00.449Z,6.40
2023-02-28T23:16:34.655Z,6.40
2023-02-28T23:19:04.397Z,6.30
2023-02-28T23:21:31.556Z,6.30
2023-02-28T23:24:05.301Z,6.30
2023-02-28T23:26:33.138Z,6.30
2023-02-28T23:29:01.291Z,6.30
2023-02-28T23:31:28.421Z,6.30
2023-02-28T23:33:56.944Z,6.30
2023-02-28T23:36:24.316Z,6.30
2023-02-28T23:38:52.482Z,6.30
2023-02-28T23:41:21.327Z,6.30
2023-02-28T23:43:49.328Z,6.30
2023-02-28T23:46:17.236Z,6.30
2023-02-28T23:48:44.219Z,6.30
2023-02-28T23:51:14.695Z,6.30
2023-02-28T23:53:43.865Z,6.30
2023-02-28T23:56:14.789Z,6.30
2023-02-28T23:58:43.751Z,6.30
